Time;durP1;ratioP1;P1;durP2;ratioP2;P2;SDS_P1;SDS_P2;PMS_P1;PMS_P2;Temp;Humidity;BMP_temperature;BMP_pressure;BME280_temperature;BME280_humidity;BME280_pressure;Samples;Min_cycle;Max_cycle;Signal;HPM_P1;HPM_P2
2022/06/04 04:32:21;;;;;;;12.20;6.60;;;16.10;99.90;;;;;;5063121;23;20590;-68
2022/06/04 04:34:47;;;;;;;11.03;6.30;;;16.10;99.90;;;;;;4935872;29;20467;-68
2022/06/04 04:37:13;;;;;;;6.60;5.93;;;16.10;99.90;;;;;;4935930;29;20529;-68
2022/06/04 04:39:38;;;;;;;8.20;6.90;;;16.10;99.90;;;;;;4935816;29;20226;-68
2022/06/04 04:42:04;;;;;;;7.27;5.77;;;16.10;99.90;;;;;;4935844;29;20178;-68
2022/06/04 04:44:30;;;;;;;7.33;6.63;;;16.00;99.90;;;;;;4935785;29;20182;-68
2022/06/04 04:46:55;;;;;;;7.23;6.53;;;16.00;99.90;;;;;;4935812;29;20520;-68
2022/06/04 04:49:21;;;;;;;7.43;6.73;;;16.00;99.90;;;;;;4935820;29;20229;-69
2022/06/04 04:51:47;;;;;;;9.87;6.83;;;15.90;99.90;;;;;;4935766;29;20186;-68
2022/06/04 04:54:13;;;;;;;7.20;6.47;;;16.00;99.90;;;;;;4935777;29;20587;-68
2022/06/04 04:56:40;;;;;;;7.67;6.50;;;16.00;99.90;;;;;;4935801;29;20422;-68
2022/06/04 04:59:05;;;;;;;10.80;6.70;;;16.00;99.90;;;;;;4935647;29;20702;-68
2022/06/04 05:01:31;;;;;;;9.43;7.30;;;16.00;99.90;;;;;;4935798;29;20531;-69
2022/06/04 05:03:57;;;;;;;8.27;6.80;;;16.00;99.90;;;;;;4935625;29;20204;-69
2022/06/04 05:06:23;;;;;;;10.73;7.37;;;16.00;99.90;;;;;;4935667;29;20234;-69
2022/06/04 05:08:52;;;;;;;7.23;6.50;;;16.10;99.90;;;;;;4935751;29;20544;-69
2022/06/04 05:11:27;;;;;;;7.60;6.90;;;16.10;99.90;;;;;;4935623;29;20510;-69
2022/06/04 05:13:53;;;;;;;8.10;7.30;;;16.10;99.90;;;;;;4935687;29;20446;-69
2022/06/04 05:16:24;;;;;;;7.27;6.00;;;16.10;99.90;;;;;;4935584;29;20431;-69
2022/06/04 05:18:50;;;;;;;7.57;6.87;;;16.20;99.90;;;;;;4935668;29;20858;-69
2022/06/04 05:21:22;;;;;;;13.27;7.30;;;16.30;99.90;;;;;;4935350;29;20537;-69
2022/06/04 05:23:48;;;;;;;10.13;6.57;;;16.30;99.90;;;;;;4935490;29;20431;-68
2022/06/04 05:26:15;;;;;;;9.23;6.60;;;16.30;99.90;;;;;;4935372;29;20491;-71
2022/06/04 05:28:40;;;;;;;6.83;6.20;;;16.40;99.90;;;;;;4936430;29;20478;-71
2022/06/04 05:31:06;;;;;;;9.10;7.47;;;16.40;99.90;;;;;;4938860;29;20977;-70
2022/06/04 05:33:32;;;;;;;8.30;7.03;;;16.40;99.90;;;;;;4939187;29;20187;-70
2022/06/04 05:35:57;;;;;;;7.70;6.87;;;16.50;99.90;;;;;;4938997;29;20250;-70
2022/06/04 05:38:24;;;;;;;8.03;6.93;;;16.60;99.90;;;;;;4939008;29;20199;-70
2022/06/04 05:40:58;;;;;;;6.20;5.60;;;16.70;99.90;;;;;;4938265;29;20222;-70
2022/06/04 05:43:24;;;;;;;6.80;6.20;;;16.80;99.90;;;;;;4938887;29;20427;-70
2022/06/04 05:45:59;;;;;;;6.80;6.20;;;16.80;99.90;;;;;;4938810;29;20634;-68
2022/06/04 05:48:25;;;;;;;7.20;6.50;;;16.80;99.90;;;;;;4938785;29;20186;-68
2022/06/04 05:50:53;;;;;;;7.30;6.40;;;16.70;99.90;;;;;;4938770;29;20792;-69
2022/06/04 05:53:19;;;;;;;7.33;6.27;;;16.60;99.90;;;;;;4938685;29;20449;-70
2022/06/04 05:55:44;;;;;;;6.77;6.07;;;16.60;99.90;;;;;;4938516;29;20430;-70
2022/06/04 05:58:10;;;;;;;6.23;5.73;;;16.60;99.90;;;;;;4938564;29;20434;-71
2022/06/04 06:00:35;;;;;;;6.83;5.90;;;16.60;99.90;;;;;;4938536;29;20601;-70
2022/06/04 06:03:01;;;;;;;7.70;6.03;;;16.50;99.90;;;;;;4938409;29;20270;-70
2022/06/04 06:05:27;;;;;;;6.50;5.90;;;16.60;99.90;;;;;;4938595;29;20187;-67
2022/06/04 06:07:53;;;;;;;6.60;5.93;;;16.60;99.90;;;;;;4938485;29;20183;-68
2022/06/04 06:10:20;;;;;;;7.43;6.30;;;16.60;99.90;;;;;;4938357;29;20187;-67
2022/06/04 06:12:46;;;;;;;7.50;6.60;;;16.70;99.90;;;;;;4938332;29;20486;-67
2022/06/04 06:15:12;;;;;;;7.67;6.63;;;16.70;99.90;;;;;;4938258;29;20521;-69
2022/06/04 06:17:39;;;;;;;7.23;5.93;;;16.70;99.90;;;;;;4938214;29;20172;-68
2022/06/04 06:20:05;;;;;;;7.03;5.77;;;16.70;99.90;;;;;;4938670;29;20728;-67
2022/06/04 06:22:31;;;;;;;11.93;7.10;;;16.80;99.90;;;;;;4951740;28;20470;-68
2022/06/04 06:24:58;;;;;;;7.47;6.77;;;16.80;99.90;;;;;;4957309;28;20410;-69
2022/06/04 06:27:24;;;;;;;8.93;5.77;;;16.90;99.90;;;;;;4957158;28;20525;-70
2022/06/04 06:29:50;;;;;;;7.90;7.10;;;17.00;99.90;;;;;;4957113;28;20441;-69
2022/06/04 06:32:16;;;;;;;7.70;6.43;;;17.00;99.90;;;;;;4956860;29;20474;-70
2022/06/04 06:34:41;;;;;;;8.77;6.00;;;17.00;99.90;;;;;;4957078;29;20177;-71
2022/06/04 06:37:07;;;;;;;7.30;6.00;;;17.00;99.90;;;;;;4950577;29;20181;-70
2022/06/04 06:39:32;;;;;;;7.57;6.70;;;17.00;99.90;;;;;;4952486;28;20577;-70
2022/06/04 06:41:58;;;;;;;6.77;5.63;;;17.10;99.90;;;;;;4944233;29;20266;-69
2022/06/04 06:44:25;;;;;;;7.73;6.10;;;17.20;99.90;;;;;;4939053;29;20187;-68
2022/06/04 06:46:51;;;;;;;6.30;5.70;;;17.20;99.90;;;;;;4945693;29;20230;-68
2022/06/04 06:49:25;;;;;;;6.60;5.73;;;17.40;99.90;;;;;;4943947;28;20423;-69
2022/06/04 06:51:57;;;;;;;6.60;5.90;;;17.40;99.90;;;;;;4944915;28;20174;-68
2022/06/04 06:54:24;;;;;;;6.50;5.53;;;17.50;99.90;;;;;;4945831;29;20928;-68
2022/06/04 06:56:51;;;;;;;8.40;6.23;;;17.60;99.90;;;;;;4945273;29;20526;-69
2022/06/04 06:59:20;;;;;;;6.60;6.00;;;17.60;99.90;;;;;;4943611;28;20426;-69
2022/06/04 07:01:48;;;;;;;6.77;5.40;;;17.70;99.90;;;;;;4945035;28;20448;-68
2022/06/04 07:04:13;;;;;;;5.90;5.30;;;17.70;99.90;;;;;;4945528;29;20866;-68
2022/06/04 07:06:42;;;;;;;10.40;6.47;;;17.70;99.90;;;;;;4943746;29;20534;-69
2022/06/04 07:09:26;;;;;;;7.63;5.63;;;17.80;99.90;;;;;;4944622;28;20170;-70
2022/06/04 07:11:52;;;;;;;6.27;5.67;;;18.00;99.90;;;;;;4943792;29;20950;-70
2022/06/04 07:14:18;;;;;;;7.30;5.80;;;18.10;99.90;;;;;;4943600;28;20489;-70
2022/06/04 07:16:45;;;;;;;6.80;6.17;;;18.20;99.90;;;;;;4945233;28;20538;-70
2022/06/04 07:19:12;;;;;;;7.55;5.75;;;18.40;99.90;;;;;;4943934;29;20425;-70
2022/06/04 07:21:37;;;;;;;7.63;6.03;;;18.50;99.90;;;;;;4943246;28;20211;-70
2022/06/04 07:24:04;;;;;;;8.23;6.00;;;18.60;99.90;;;;;;4944783;29;20466;-69
2022/06/04 07:26:29;;;;;;;6.57;5.97;;;18.70;99.90;;;;;;4944565;29;20277;-69
2022/06/04 07:28:55;;;;;;;7.30;6.17;;;18.70;99.90;;;;;;4943347;29;21179;-68
2022/06/04 07:31:21;;;;;;;7.07;5.70;;;18.70;99.90;;;;;;4944609;29;20242;-69
2022/06/04 07:33:50;;;;;;;5.83;5.30;;;18.60;99.90;;;;;;4944918;29;20840;-70
2022/06/04 07:36:18;;;;;;;7.17;6.47;;;18.60;99.90;;;;;;4944123;28;20490;-71
2022/06/04 07:38:45;;;;;;;6.57;5.80;;;18.60;99.90;;;;;;4941712;29;20420;-73
2022/06/04 07:41:19;;;;;;;6.37;5.80;;;18.60;99.90;;;;;;4945193;28;20470;-73
2022/06/04 07:43:45;;;;;;;7.13;6.43;;;18.80;99.90;;;;;;4945554;29;20434;-73
2022/06/04 07:46:10;;;;;;;7.17;6.10;;;19.00;99.90;;;;;;4943968;29;20954;-73
2022/06/04 07:48:36;;;;;;;6.07;5.47;;;19.00;99.90;;;;;;4944753;29;20195;-73
2022/06/04 07:51:04;;;;;;;10.27;7.07;;;19.00;99.90;;;;;;4945065;28;20608;-73
2022/06/04 07:53:30;;;;;;;7.83;6.03;;;18.90;99.90;;;;;;4950815;29;20277;-74
2022/06/04 07:55:55;;;;;;;7.77;6.07;;;18.90;99.90;;;;;;4955598;28;20500;-74
2022/06/04 07:58:21;;;;;;;8.67;6.90;;;18.90;99.90;;;;;;4955638;29;20183;-74
2022/06/04 08:00:53;;;;;;;9.47;6.60;;;18.80;99.90;;;;;;4955542;29;20229;-73
2022/06/04 08:03:18;;;;;;;6.20;5.70;;;18.80;99.90;;;;;;4955583;28;20642;-75
2022/06/04 08:05:44;;;;;;;8.73;7.10;;;18.90;99.90;;;;;;4955304;29;20469;-75
2022/06/04 08:08:09;;;;;;;9.37;5.97;;;19.00;99.90;;;;;;4955295;29;20206;-74
2022/06/04 08:10:35;;;;;;;6.60;6.00;;;19.10;99.90;;;;;;4955281;29;20179;-75
2022/06/04 08:13:01;;;;;;;7.47;6.67;;;19.10;99.90;;;;;;4955271;29;20186;-75
2022/06/04 08:15:27;;;;;;;7.37;5.83;;;19.20;99.90;;;;;;4955330;28;20186;-77
2022/06/04 08:17:53;;;;;;;6.73;6.23;;;19.20;99.90;;;;;;4955232;28;20505;-77
2022/06/04 08:20:19;;;;;;;6.30;5.60;;;19.20;99.90;;;;;;4955110;29;21067;-76
2022/06/04 08:22:45;;;;;;;10.90;7.73;;;19.20;99.90;;;;;;4955185;28;20189;-75
2022/06/04 08:25:11;;;;;;;6.53;5.93;;;19.30;99.90;;;;;;4955250;29;20525;-79
2022/06/04 08:27:37;;;;;;;8.57;5.70;;;19.20;99.90;;;;;;4955594;28;20843;-86
2022/06/04 08:30:03;;;;;;;6.67;5.77;;;19.30;99.90;;;;;;4955920;29;20457;-79
2022/06/04 08:32:29;;;;;;;6.10;5.47;;;19.40;99.90;;;;;;4955501;28;20226;-80
2022/06/04 08:34:54;;;;;;;6.83;5.37;;;19.30;99.90;;;;;;4955573;29;20438;-78
2022/06/04 08:37:20;;;;;;;11.03;7.53;;;19.50;99.90;;;;;;4955166;29;20179;-74
2022/06/04 08:39:45;;;;;;;7.97;5.30;;;19.60;99.90;;;;;;4954713;29;20288;-74
2022/06/04 08:42:11;;;;;;;8.60;7.80;;;19.70;99.90;;;;;;4955058;29;20182;-78
2022/06/04 08:44:50;;;;;;;10.10;6.33;;;19.70;99.90;;;;;;4954949;29;20634;-83
2022/06/04 08:47:17;;;;;;;6.27;5.67;;;19.80;99.90;;;;;;4955157;28;20209;-76
2022/06/04 08:49:53;;;;;;;6.57;6.07;;;19.80;99.90;;;;;;4955251;29;20435;-76
2022/06/04 08:52:31;;;;;;;7.10;6.40;;;19.70;99.90;;;;;;4955095;28;20430;-76
2022/06/04 08:57:47;;;;;;;8.67;6.20;;;19.90;99.90;;;;;;4954949;29;20460;-74
2022/06/04 09:00:22;;;;;;;7.40;5.97;;;20.00;99.90;;;;;;4954527;28;20473;-73
2022/06/04 09:02:52;;;;;;;9.30;5.93;;;20.20;99.90;;;;;;4955806;28;20432;-74
2022/06/04 09:05:41;;;;;;;10.97;6.33;;;20.20;99.90;;;;;;4958525;28;20795;-75
2022/06/04 09:08:20;;;;;;;6.80;6.13;;;20.20;99.90;;;;;;4950495;28;20426;-74
2022/06/04 09:10:53;;;;;;;6.40;4.73;;;20.30;99.90;;;;;;4958580;28;20572;-77
2022/06/04 09:13:29;;;;;;;8.40;4.77;;;20.40;99.90;;;;;;4958456;28;20434;-73
2022/06/04 09:16:01;;;;;;;5.97;5.27;;;20.70;99.90;;;;;;4957190;29;20425;-72
2022/06/04 09:18:36;;;;;;;6.50;5.90;;;20.80;99.90;;;;;;4958364;28;20429;-72
2022/06/04 09:21:04;;;;;;;6.07;5.57;;;21.00;99.90;;;;;;4958433;29;20481;-76
2022/06/04 09:23:36;;;;;;;6.73;6.10;;;21.00;99.90;;;;;;4958494;28;20430;-78
2022/06/04 09:26:09;;;;;;;7.17;5.50;;;20.80;99.90;;;;;;4958262;29;20426;-75
2022/06/04 09:28:55;;;;;;;6.90;5.33;;;20.90;99.90;;;;;;4958141;29;20433;-76
2022/06/04 09:31:56;;;;;;;12.37;5.70;;;21.10;99.90;;;;;;4957932;29;20501;-78
2022/06/04 09:34:30;;;;;;;6.37;5.77;;;21.20;99.90;;;;;;4898978;29;20432;-84
2022/06/04 09:36:57;;;;;;;8.50;6.90;;;21.20;99.90;;;;;;4949952;28;20695;-78
2022/06/04 09:39:28;;;;;;;7.77;6.03;;;21.20;99.90;;;;;;4958227;28;20476;-80
2022/06/04 09:42:00;;;;;;;6.07;5.57;;;21.10;99.90;;;;;;4958558;28;20953;-82
2022/06/04 09:44:28;;;;;;;6.87;6.20;;;21.10;99.90;;;;;;4958353;28;20445;-81
2022/06/04 09:47:17;;;;;;;7.73;5.77;;;21.10;99.90;;;;;;4958068;28;20441;-83
2022/06/04 09:49:51;;;;;;;6.07;5.50;;;21.10;99.90;;;;;;4958461;28;20434;-81
2022/06/04 09:52:36;;;;;;;6.03;4.80;;;21.00;99.90;;;;;;4958379;28;20921;-80
2022/06/04 09:55:15;;;;;;;8.40;5.90;;;21.10;99.90;;;;;;4957929;28;20422;-78
2022/06/04 09:57:41;;;;;;;8.50;5.43;;;21.10;99.90;;;;;;4957783;28;20769;-81
2022/06/04 10:00:20;;;;;;;6.40;5.80;;;21.20;99.90;;;;;;4957587;28;20524;-80
2022/06/04 10:02:57;;;;;;;6.60;5.60;;;21.10;99.90;;;;;;4957871;29;20429;-80
2022/06/04 10:05:25;;;;;;;8.43;6.80;;;21.00;99.90;;;;;;4957692;28;20433;-80
2022/06/04 10:07:51;;;;;;;8.80;6.33;;;21.00;99.90;;;;;;4956462;29;20434;-80
2022/06/04 10:10:43;;;;;;;7.40;6.70;;;21.10;99.90;;;;;;4957576;28;20783;-80
2022/06/04 10:16:26;;;;;;;10.90;6.70;;;21.00;99.90;;;;;;4957044;29;20554;-80
2022/06/04 10:18:55;;;;;;;15.40;6.33;;;21.20;99.90;;;;;;4957506;28;20426;-80
2022/06/04 10:21:25;;;;;;;8.50;6.67;;;21.20;99.90;;;;;;4957328;28;20493;-80
2022/06/04 10:23:54;;;;;;;10.83;8.40;;;21.20;99.90;;;;;;4957497;28;20485;-80
2022/06/04 10:26:38;;;;;;;9.93;6.43;;;21.20;99.90;;;;;;4957166;28;20774;-80
2022/06/04 10:29:41;;;;;;;8.80;7.27;;;21.20;99.90;;;;;;4958021;28;20593;-80
2022/06/04 10:32:30;;;;;;;10.07;6.70;;;21.30;99.90;;;;;;4956992;29;20462;-80
2022/06/04 10:35:14;;;;;;;9.57;7.17;;;21.30;99.90;;;;;;4957041;28;20434;-78
2022/06/04 10:37:57;;;;;;;9.33;7.13;;;21.30;99.90;;;;;;4956872;29;20438;-80
2022/06/04 10:40:56;;;;;;;9.57;6.40;;;21.20;99.90;;;;;;4956998;29;20461;-81
2022/06/04 10:43:46;;;;;;;8.40;6.40;;;21.30;99.90;;;;;;4957532;28;20457;-81
2022/06/04 10:46:49;;;;;;;6.30;5.70;;;21.40;99.90;;;;;;4957358;29;20441;-75
2022/06/04 10:49:36;;;;;;;7.70;6.57;;;21.40;99.90;;;;;;4956628;29;20425;-76
2022/06/04 10:52:17;;;;;;;7.13;6.00;;;21.50;99.90;;;;;;4956701;29;20426;-76
2022/06/04 10:55:06;;;;;;;8.90;5.90;;;21.50;99.90;;;;;;4956294;29;20944;-76
2022/06/04 10:57:45;;;;;;;7.30;6.60;;;21.50;99.90;;;;;;4956801;28;20454;-76
2022/06/04 11:00:18;;;;;;;8.27;6.30;;;21.60;99.90;;;;;;4956491;28;20469;-75
2022/06/04 11:03:02;;;;;;;7.10;6.40;;;21.80;99.90;;;;;;4956629;28;20485;-75
2022/06/04 11:05:43;;;;;;;9.83;7.23;;;21.90;99.90;;;;;;4956409;29;20425;-75
2022/06/04 11:08:26;;;;;;;9.90;6.63;;;22.00;99.90;;;;;;4956469;28;20425;-75
2022/06/04 11:11:15;;;;;;;6.20;5.20;;;22.10;99.90;;;;;;4956606;28;20426;-79
2022/06/04 11:13:51;;;;;;;7.57;6.32;;;22.00;99.90;;;;;;4955231;28;20867;-68
2022/06/04 11:16:30;;;;;;;8.23;7.20;;;22.20;99.90;;;;;;4956386;28;20188;-68
2022/06/04 11:19:06;;;;;;;5.20;4.63;;;22.40;99.90;;;;;;4955976;28;20796;-68
2022/06/04 11:21:42;;;;;;;6.20;5.70;;;22.40;99.90;;;;;;4956256;28;20481;-69
2022/06/04 11:24:26;;;;;;;7.10;6.33;;;22.50;99.90;;;;;;4956030;28;20433;-70
2022/06/04 11:27:10;;;;;;;7.33;6.50;;;22.60;99.90;;;;;;4955005;28;20802;-69
2022/06/04 11:29:40;;;;;;;6.00;5.50;;;22.70;99.90;;;;;;4956154;29;20449;-74
2022/06/04 11:32:30;;;;;;;7.07;6.40;;;22.80;99.90;;;;;;4955736;28;20466;-69
2022/06/04 11:35:06;;;;;;;11.23;6.70;;;23.00;99.90;;;;;;4955708;28;20430;-69
2022/06/04 11:38:26;;;;;;;6.40;5.80;;;23.00;99.90;;;;;;4955890;28;20465;-69
2022/06/04 11:41:08;;;;;;;6.70;6.10;;;23.00;99.90;;;;;;4896547;29;20516;-68
2022/06/04 11:43:49;;;;;;;8.93;6.40;;;23.00;99.90;;;;;;4950177;28;20453;-69
2022/06/04 11:46:23;;;;;;;7.17;6.47;;;23.20;99.90;;;;;;4955738;29;20445;-69
2022/06/04 11:49:06;;;;;;;7.20;5.93;;;23.00;99.90;;;;;;4955766;29;20418;-69
2022/06/04 11:51:43;;;;;;;7.10;6.20;;;23.10;99.90;;;;;;4942018;29;20640;-70
2022/06/04 11:54:30;;;;;;;6.37;5.87;;;23.10;99.90;;;;;;4936446;29;20466;-70
2022/06/04 11:57:23;;;;;;;10.00;6.70;;;23.10;99.90;;;;;;4941381;29;20442;-69
2022/06/04 12:00:15;;;;;;;5.70;5.20;;;23.10;99.90;;;;;;4949249;29;21067;-70
2022/06/04 12:03:12;;;;;;;6.53;5.60;;;23.20;99.90;;;;;;4945900;29;20504;-70
2022/06/04 12:05:38;;;;;;;8.00;5.67;;;23.30;99.90;;;;;;4943342;29;20502;-70
2022/06/04 12:08:14;;;;;;;8.10;7.23;;;23.40;99.90;;;;;;4943937;29;20528;-70
2022/06/04 12:11:18;;;;;;;5.03;4.63;;;23.40;99.90;;;;;;4944064;29;20182;-70
2022/06/04 12:14:11;;;;;;;5.40;4.67;;;23.50;99.90;;;;;;4944998;29;20446;-69
2022/06/04 12:16:36;;;;;;;5.87;5.37;;;23.60;99.90;;;;;;4943011;29;20915;-69
2022/06/04 12:25:16;;;;;;;6.03;4.10;;;23.90;96.50;;;;;;4941567;29;20454;-71
2022/06/04 12:28:22;;;;;;;4.30;3.90;;;23.90;96.50;;;;;;4944684;28;20438;-71
2022/06/04 12:30:48;;;;;;;6.53;3.80;;;23.90;96.40;;;;;;4907142;29;20867;-72
2022/06/04 12:33:29;;;;;;;5.13;4.63;;;23.80;97.10;;;;;;4944492;29;20478;-71
2022/06/04 12:36:07;;;;;;;5.00;4.30;;;23.90;96.50;;;;;;4942566;29;20784;-71
2022/06/04 12:38:37;;;;;;;4.40;4.00;;;23.90;96.90;;;;;;4941796;28;20483;-72
2022/06/04 12:41:16;;;;;;;6.90;5.70;;;23.80;97.40;;;;;;4943021;29;21063;-72
2022/06/04 12:43:57;;;;;;;4.37;4.07;;;23.90;97.00;;;;;;4944224;29;20554;-71
2022/06/04 12:46:23;;;;;;;4.60;4.20;;;23.80;96.90;;;;;;4944451;29;20455;-72
2022/06/04 12:49:21;;;;;;;6.77;4.37;;;23.80;96.40;;;;;;4943765;29;20431;-73
2022/06/04 12:52:22;;;;;;;4.50;3.80;;;23.80;95.90;;;;;;4945203;29;20182;-71
2022/06/04 12:54:59;;;;;;;4.27;3.83;;;23.90;95.00;;;;;;4945240;29;20477;-81
2022/06/04 12:57:58;;;;;;;4.30;4.00;;;23.80;96.50;;;;;;4945544;29;20422;-71
2022/06/04 13:00:28;;;;;;;4.50;3.53;;;23.90;96.50;;;;;;4944330;29;20470;-74
2022/06/04 13:03:06;;;;;;;5.03;4.40;;;24.00;97.50;;;;;;4938310;29;20431;-73
2022/06/04 13:05:34;;;;;;;3.97;3.67;;;24.20;97.40;;;;;;4951632;29;21004;-74
2022/06/04 13:08:18;;;;;;;6.10;3.50;;;24.30;96.50;;;;;;4953664;28;20418;-72
2022/06/04 13:11:17;;;;;;;3.27;2.90;;;24.50;94.40;;;;;;4953720;29;20476;-72
2022/06/04 13:14:09;;;;;;;3.87;3.57;;;24.70;93.00;;;;;;4953820;29;20778;-72
2022/06/04 13:16:47;;;;;;;3.90;3.60;;;24.80;92.80;;;;;;4953723;28;20440;-73
2022/06/04 13:19:39;;;;;;;4.43;3.77;;;24.90;92.80;;;;;;4953678;28;20870;-72
2022/06/04 13:22:16;;;;;;;19.93;5.30;;;25.00;92.50;;;;;;4953517;29;20968;-75
2022/06/04 13:24:41;;;;;;;6.37;3.90;;;25.00;92.80;;;;;;4953614;28;20433;-72
2022/06/04 13:27:12;;;;;;;8.63;3.97;;;25.10;92.30;;;;;;4955948;29;20426;-85
2022/06/04 13:29:39;;;;;;;5.37;3.37;;;25.20;90.80;;;;;;4956329;28;20226;-86
2022/06/04 13:32:17;;;;;;;3.37;2.90;;;25.20;91.10;;;;;;4954689;28;20505;-83
2022/06/04 13:34:44;;;;;;;3.93;3.37;;;25.20;91.20;;;;;;4955090;28;20808;-83
2022/06/04 13:37:22;;;;;;;3.67;3.37;;;25.30;91.70;;;;;;4954072;28;20829;-84
2022/06/04 13:39:50;;;;;;;3.80;3.00;;;25.40;90.80;;;;;;4953784;28;20461;-90
2022/06/04 13:42:31;;;;;;;3.40;3.10;;;25.40;91.60;;;;;;4955950;28;20466;-83
2022/06/04 13:45:19;;;;;;;3.47;3.17;;;25.50;88.60;;;;;;4954489;28;20458;-79
2022/06/04 13:48:00;;;;;;;3.20;3.00;;;25.50;90.80;;;;;;4943472;28;20442;-81
2022/06/04 13:50:29;;;;;;;3.43;3.20;;;25.60;89.50;;;;;;4955778;28;20442;-82
2022/06/04 13:53:01;;;;;;;4.17;3.73;;;25.60;89.30;;;;;;4958296;28;20430;-81
2022/06/04 13:55:47;;;;;;;3.80;3.50;;;25.60;87.10;;;;;;4958124;28;20933;-84
2022/06/04 13:58:20;;;;;;;3.83;3.53;;;25.60;87.60;;;;;;4958112;28;20469;-81
2022/06/04 14:00:49;;;;;;;3.40;3.10;;;25.70;88.00;;;;;;4956270;28;20973;-81
2022/06/04 14:03:19;;;;;;;3.00;2.80;;;25.70;87.90;;;;;;4947167;28;20179;-80
2022/06/04 14:05:47;;;;;;;3.63;3.33;;;25.70;88.30;;;;;;4947656;29;20466;-80
2022/06/04 14:08:31;;;;;;;4.10;3.40;;;25.70;83.40;;;;;;4946314;29;20887;-80
2022/06/04 14:11:24;;;;;;;4.47;3.80;;;25.70;82.90;;;;;;4944931;29;20494;-79
2022/06/04 14:14:01;;;;;;;4.43;3.07;;;25.80;84.20;;;;;;4951502;29;20426;-80
2022/06/04 14:16:53;;;;;;;3.70;3.40;;;25.90;83.40;;;;;;4956641;29;20487;-79
2022/06/04 14:19:43;;;;;;;3.13;2.83;;;25.80;81.10;;;;;;4923736;29;20477;-79
2022/06/04 14:22:41;;;;;;;3.33;3.03;;;25.80;85.30;;;;;;4946013;29;20529;-77
2022/06/04 14:25:17;;;;;;;3.30;3.00;;;25.80;83.40;;;;;;4944302;29;20607;-78
2022/06/04 14:28:27;;;;;;;10.73;4.37;;;25.80;82.90;;;;;;4948019;28;20438;-84
2022/06/04 14:31:22;;;;;;;6.03;3.73;;;25.90;84.00;;;;;;4942518;29;20467;-76
2022/06/04 14:33:48;;;;;;;3.50;3.20;;;25.90;79.70;;;;;;4943890;29;20442;-76
2022/06/04 14:36:21;;;;;;;4.00;3.13;;;25.90;79.60;;;;;;4945783;29;20430;-75
2022/06/04 14:38:49;;;;;;;3.23;3.03;;;25.90;82.70;;;;;;4940100;29;20175;-75
2022/06/04 14:41:46;;;;;;;3.10;2.80;;;25.90;81.10;;;;;;4942214;29;20485;-71
2022/06/04 14:44:31;;;;;;;4.13;3.73;;;26.00;79.00;;;;;;4913478;29;20838;-71
2022/06/04 14:47:03;;;;;;;3.63;3.33;;;26.00;82.20;;;;;;4944403;29;20512;-72
2022/06/04 14:49:57;;;;;;;5.07;3.40;;;26.00;81.30;;;;;;4946317;29;20438;-70
2022/06/04 14:52:39;;;;;;;3.30;3.10;;;26.10;79.80;;;;;;4943863;29;20433;-70
2022/06/04 14:55:13;;;;;;;3.37;2.77;;;26.10;80.90;;;;;;4944059;29;20470;-70
2022/06/04 14:57:41;;;;;;;4.03;3.37;;;26.10;79.60;;;;;;4942342;29;20433;-69
2022/06/04 15:00:34;;;;;;;3.43;3.20;;;26.10;80.40;;;;;;4945250;28;20826;-69
2022/06/04 15:03:30;;;;;;;3.80;3.40;;;26.20;77.20;;;;;;4942410;29;20434;-69
2022/06/04 15:06:04;;;;;;;3.50;3.17;;;26.20;80.00;;;;;;4946271;29;20517;-70
2022/06/04 15:08:51;;;;;;;4.47;2.87;;;26.20;77.70;;;;;;4946186;29;20477;-70
2022/06/04 15:11:29;;;;;;;3.10;2.90;;;26.30;75.50;;;;;;4946294;29;20430;-70
2022/06/04 15:14:11;;;;;;;3.67;3.23;;;26.30;76.00;;;;;;4943859;29;20779;-71
2022/06/04 15:17:02;;;;;;;4.27;3.20;;;26.30;74.50;;;;;;4938719;29;20786;-72
2022/06/04 15:19:32;;;;;;;3.10;2.90;;;26.10;75.10;;;;;;4939472;29;20520;-72
2022/06/04 15:22:07;;;;;;;3.83;3.53;;;26.20;75.20;;;;;;4939218;29;20505;-72
2022/06/04 15:24:32;;;;;;;4.00;3.53;;;26.10;77.00;;;;;;4944664;29;20445;-71
2022/06/04 15:27:43;;;;;;;3.63;3.37;;;26.10;75.20;;;;;;4946032;29;20442;-71
2022/06/04 15:36:19;;;;;;;2.90;2.70;;;26.30;74.50;;;;;;4937251;29;20443;-71
2022/06/04 15:38:59;;;;;;;6.60;4.00;;;26.30;75.00;;;;;;4934167;29;20442;-71
2022/06/04 15:41:29;;;;;;;8.80;4.30;;;26.20;74.80;;;;;;4934781;29;20525;-71
2022/06/04 15:44:12;;;;;;;4.73;3.37;;;26.10;73.80;;;;;;4935307;29;20419;-71
2022/06/04 15:46:47;;;;;;;4.00;3.60;;;26.10;75.20;;;;;;4935654;29;20426;-71
2022/06/04 15:55:26;;;;;;;4.23;3.83;;;25.90;75.50;;;;;;4935906;29;20438;-71
2022/06/04 15:58:15;;;;;;;3.33;3.03;;;25.90;76.20;;;;;;4935697;29;20431;-71
2022/06/04 16:00:48;;;;;;;3.53;3.23;;;25.90;75.30;;;;;;4935495;29;20470;-71
2022/06/04 16:03:25;;;;;;;3.10;2.90;;;25.80;77.40;;;;;;4935670;29;20470;-71
2022/06/04 16:06:03;;;;;;;3.50;3.20;;;25.80;76.00;;;;;;4943978;28;20437;-71
2022/06/04 16:08:29;;;;;;;4.27;3.77;;;25.70;76.30;;;;;;4942869;29;20513;-71
2022/06/04 16:11:09;;;;;;;5.93;3.90;;;25.70;75.70;;;;;;4945558;29;20817;-71
2022/06/04 16:14:08;;;;;;;4.80;4.40;;;25.70;78.10;;;;;;4951758;28;20854;-70
2022/06/04 16:16:44;;;;;;;3.57;3.30;;;25.70;78.40;;;;;;4955044;28;20429;-70
2022/06/04 16:19:31;;;;;;;8.33;3.90;;;25.80;76.20;;;;;;4955006;28;20425;-69
2022/06/04 16:22:06;;;;;;;4.07;3.70;;;25.80;76.70;;;;;;4954888;28;20468;-69
2022/06/04 16:24:34;;;;;;;5.17;3.73;;;25.80;77.30;;;;;;4955245;28;20606;-69
2022/06/04 16:27:02;;;;;;;4.10;3.43;;;25.70;77.80;;;;;;4955054;29;20854;-69
2022/06/04 16:29:31;;;;;;;5.90;3.30;;;25.60;77.60;;;;;;4955214;28;20791;-65
2022/06/04 16:32:15;;;;;;;4.20;3.40;;;25.60;78.00;;;;;;4940605;28;20485;-69
2022/06/04 16:34:47;;;;;;;3.27;3.00;;;25.50;78.00;;;;;;4934025;29;20550;-69
2022/06/04 16:37:36;;;;;;;3.40;3.10;;;25.40;79.40;;;;;;4935586;29;20431;-69
2022/06/04 16:40:07;;;;;;;3.50;3.20;;;25.50;80.60;;;;;;4935743;29;20473;-70
2022/06/04 16:42:46;;;;;;;3.40;3.07;;;25.50;75.80;;;;;;4935444;29;20430;-71
2022/06/04 16:45:23;;;;;;;6.17;3.30;;;25.50;76.90;;;;;;4933622;29;20453;-70
2022/06/04 16:47:52;;;;;;;3.60;3.40;;;25.40;77.70;;;;;;4935075;29;20423;-71
2022/06/04 16:50:18;;;;;;;4.00;3.70;;;25.40;78.10;;;;;;4933615;29;20435;-70
2022/06/04 16:52:45;;;;;;;7.30;3.43;;;25.40;79.20;;;;;;4935014;29;20423;-69
2022/06/04 16:55:17;;;;;;;3.90;3.60;;;25.30;79.70;;;;;;4934987;29;20175;-69
2022/06/04 16:57:45;;;;;;;3.80;3.50;;;25.30;78.50;;;;;;4933699;29;20430;-69
2022/06/04 17:00:14;;;;;;;3.90;3.53;;;25.20;81.00;;;;;;4939445;29;20815;-69
2022/06/04 17:02:46;;;;;;;4.10;3.80;;;25.20;79.30;;;;;;4953758;28;20442;-69
2022/06/04 17:05:20;;;;;;;4.40;4.00;;;25.30;79.40;;;;;;4952214;28;20449;-69
2022/06/04 17:07:58;;;;;;;4.33;3.93;;;25.30;80.80;;;;;;4934801;29;20435;-69
2022/06/04 17:10:51;;;;;;;5.53;4.47;;;25.20;85.40;;;;;;4936345;29;20438;-68
2022/06/04 17:13:38;;;;;;;6.20;3.80;;;25.10;86.00;;;;;;4953722;28;20850;-70
2022/06/04 17:16:28;;;;;;;4.47;4.07;;;25.00;85.00;;;;;;4947793;29;20435;-69
2022/06/04 17:19:08;;;;;;;4.10;3.80;;;24.90;81.90;;;;;;4934631;29;20454;-69
2022/06/04 17:22:07;;;;;;;7.47;3.57;;;24.90;82.50;;;;;;4934644;29;20485;-69
2022/06/04 17:24:59;;;;;;;5.30;3.97;;;24.90;82.40;;;;;;4938962;28;20546;-69
2022/06/04 17:27:39;;;;;;;3.80;3.50;;;24.80;82.50;;;;;;4944501;29;20450;-70
2022/06/04 17:30:10;;;;;;;4.30;4.00;;;24.60;81.50;;;;;;4946059;29;20937;-71
2022/06/04 17:33:02;;;;;;;4.93;3.63;;;24.50;82.40;;;;;;4955721;29;20493;-69
2022/06/04 17:35:34;;;;;;;4.70;4.00;;;24.50;82.60;;;;;;4957273;28;20430;-69
2022/06/04 17:38:12;;;;;;;6.83;4.43;;;24.40;83.40;;;;;;4957106;28;20468;-69
2022/06/04 17:40:51;;;;;;;3.90;3.60;;;24.30;82.20;;;;;;4956705;29;20836;-69
2022/06/04 17:43:17;;;;;;;4.10;3.70;;;24.20;83.60;;;;;;4957102;28;20422;-71
2022/06/04 17:45:46;;;;;;;7.17;3.40;;;24.30;84.50;;;;;;4956899;29;20437;-70
2022/06/04 17:48:12;;;;;;;3.83;3.53;;;24.30;83.90;;;;;;4956948;28;20179;-69
2022/06/04 17:50:37;;;;;;;3.87;3.50;;;24.20;82.90;;;;;;4956518;28;20778;-70
2022/06/04 17:53:03;;;;;;;3.60;3.30;;;24.20;83.20;;;;;;4956780;29;20428;-69
2022/06/04 17:55:29;;;;;;;4.27;3.40;;;24.20;82.80;;;;;;4956731;29;20671;-69
2022/06/04 17:57:55;;;;;;;4.33;3.70;;;24.30;82.20;;;;;;4956444;28;20581;-69
2022/06/04 18:00:22;;;;;;;6.73;3.73;;;24.20;83.00;;;;;;4941626;28;20482;-70
2022/06/04 18:02:50;;;;;;;4.17;3.77;;;24.10;82.40;;;;;;4937667;29;20755;-70
2022/06/04 18:05:18;;;;;;;3.80;3.27;;;24.00;83.80;;;;;;4939640;29;20441;-70
2022/06/04 18:07:44;;;;;;;3.90;3.60;;;24.00;84.20;;;;;;4946070;29;20435;-70
2022/06/04 18:10:10;;;;;;;4.10;3.70;;;24.00;84.00;;;;;;4943601;29;20434;-70
2022/06/04 18:12:36;;;;;;;3.80;3.40;;;23.90;83.60;;;;;;4937146;29;20670;-70
2022/06/04 18:15:04;;;;;;;3.97;3.63;;;23.90;84.10;;;;;;4937149;29;20427;-70
2022/06/04 18:17:29;;;;;;;3.03;2.83;;;23.90;84.40;;;;;;4942105;29;20224;-68
2022/06/04 18:19:57;;;;;;;7.63;4.00;;;23.80;84.70;;;;;;4946413;29;20495;-69